Time;durP1;ratioP1;P1;durP2;ratioP2;P2;SDS_P1;SDS_P2;PMS_P1;PMS_P2;Temp;Humidity;BMP_temperature;BMP_pressure;BME280_temperature;BME280_humidity;BME280_pressure;Samples;Min_cycle;Max_cycle;Signal;HPM_P1;HPM_P2
2022/03/18 00:02:21;;;;;;;6.07;2.30;;;6.60;80.90;;;;;;5052460;28;20021;-74
2022/03/18 00:04:48;;;;;;;5.18;1.80;;;6.60;79.70;;;;;;5052492;28;20024;-74
2022/03/18 00:07:14;;;;;;;6.20;2.20;;;6.60;81.10;;;;;;5052003;28;20120;-74
2022/03/18 00:09:41;;;;;;;4.80;1.70;;;6.60;80.20;;;;;;5052872;28;20065;-75
2022/03/18 00:12:08;;;;;;;5.18;2.00;;;6.60;79.90;;;;;;5052044;28;20036;-75
2022/03/18 00:14:34;;;;;;;5.22;2.20;;;6.50;79.80;;;;;;5051950;28;20033;-75
2022/03/18 00:17:00;;;;;;;4.93;2.30;;;6.50;79.20;;;;;;5052078;28;20033;-75
2022/03/18 00:19:27;;;;;;;6.55;1.88;;;6.50;79.50;;;;;;5052361;28;20040;-75
2022/03/18 00:22:00;;;;;;;5.60;1.95;;;6.50;79.50;;;;;;5050983;28;20025;-74
2022/03/18 00:24:26;;;;;;;4.18;1.90;;;6.40;80.00;;;;;;5052851;28;20051;-75
2022/03/18 00:26:51;;;;;;;4.18;2.00;;;6.40;79.70;;;;;;5050478;28;20025;-74
2022/03/18 00:29:17;;;;;;;4.78;2.08;;;6.40;79.60;;;;;;5051785;28;20079;-74
2022/03/18 00:31:44;;;;;;;3.60;1.80;;;6.40;79.50;;;;;;5051755;28;20033;-75
2022/03/18 00:34:10;;;;;;;6.25;2.15;;;6.40;79.50;;;;;;5050348;28;20119;-77
2022/03/18 00:36:37;;;;;;;5.95;1.98;;;6.30;79.40;;;;;;5051079;28;20439;-74
2022/03/18 00:39:03;;;;;;;7.65;2.47;;;6.30;79.70;;;;;;5051628;28;20033;-75
2022/03/18 00:41:29;;;;;;;6.13;2.67;;;6.30;79.60;;;;;;5051753;28;20021;-75
2022/03/18 00:43:55;;;;;;;4.78;2.22;;;6.20;79.60;;;;;;5051480;28;20040;-74
2022/03/18 00:46:22;;;;;;;7.28;2.45;;;6.20;80.20;;;;;;5051776;28;20025;-75
2022/03/18 00:54:20;;;;;;;6.18;2.90;;;6.20;80.90;;;;;;5051520;28;20048;-74
2022/03/18 00:56:46;;;;;;;6.32;2.42;;;6.20;81.10;;;;;;5051807;28;20485;-73
2022/03/18 00:59:12;;;;;;;7.28;2.60;;;6.10;81.30;;;;;;5051363;28;20113;-73
2022/03/18 01:01:38;;;;;;;7.65;2.30;;;6.10;81.20;;;;;;5051483;28;20452;-74
2022/03/18 01:04:04;;;;;;;4.30;2.38;;;6.10;81.10;;;;;;5050629;28;20021;-74
2022/03/18 01:06:31;;;;;;;6.32;2.72;;;6.10;81.20;;;;;;5051889;28;20076;-74
2022/03/18 01:08:57;;;;;;;7.93;2.50;;;6.10;81.10;;;;;;5051367;28;20504;-74
2022/03/18 01:11:22;;;;;;;6.65;2.70;;;6.00;81.30;;;;;;5051404;28;20025;-74
2022/03/18 01:13:48;;;;;;;7.40;2.28;;;6.00;81.50;;;;;;5051206;28;20104;-74
2022/03/18 01:16:14;;;;;;;6.68;2.30;;;6.00;81.30;;;;;;5051349;28;20059;-73
2022/03/18 01:18:39;;;;;;;6.80;2.67;;;6.00;81.00;;;;;;5051539;28;20569;-73
2022/03/18 01:21:05;;;;;;;4.88;2.42;;;6.00;81.00;;;;;;5051260;28;20485;-75
2022/03/18 01:23:31;;;;;;;5.82;2.03;;;6.00;81.00;;;;;;5051681;28;20041;-74
2022/03/18 01:25:57;;;;;;;4.68;1.92;;;6.00;81.00;;;;;;5051332;28;20116;-73
2022/03/18 01:28:23;;;;;;;5.68;1.80;;;6.00;80.80;;;;;;5050013;28;20102;-73
2022/03/18 01:30:48;;;;;;;3.72;1.42;;;6.00;80.60;;;;;;5052083;28;20438;-73
2022/03/18 01:33:14;;;;;;;3.75;1.90;;;6.00;80.20;;;;;;5049542;28;20540;-74
2022/03/18 01:35:40;;;;;;;4.70;1.40;;;6.00;80.20;;;;;;5049864;28;20374;-73
2022/03/18 01:38:06;;;;;;;3.50;1.48;;;6.00;79.90;;;;;;5051245;28;20035;-73
2022/03/18 01:40:31;;;;;;;5.00;1.77;;;6.00;79.80;;;;;;5051123;28;20029;-73
2022/03/18 01:42:57;;;;;;;4.85;1.73;;;6.00;79.40;;;;;;5051239;28;20032;-74
2022/03/18 01:45:24;;;;;;;2.55;1.25;;;6.00;79.30;;;;;;5051554;28;20025;-74
2022/03/18 01:47:50;;;;;;;5.45;1.35;;;6.00;79.20;;;;;;5049362;28;20481;-74
2022/03/18 01:50:16;;;;;;;4.50;1.25;;;6.00;80.20;;;;;;5049583;28;20071;-74
2022/03/18 01:52:45;;;;;;;2.03;1.10;;;6.00;79.20;;;;;;5051144;28;20437;-74
2022/03/18 01:55:11;;;;;;;4.65;1.42;;;6.00;79.10;;;;;;5049884;28;20083;-74
2022/03/18 01:57:37;;;;;;;3.75;1.35;;;6.00;79.00;;;;;;5050163;28;20400;-75
2022/03/18 02:00:05;;;;;;;4.50;1.30;;;6.10;79.20;;;;;;5049590;28;20083;-74
2022/03/18 02:02:31;;;;;;;3.83;1.35;;;6.10;78.90;;;;;;5050590;28;20025;-74
2022/03/18 02:05:00;;;;;;;2.67;0.93;;;6.20;78.90;;;;;;5049632;28;20029;-74
2022/03/18 02:07:25;;;;;;;2.65;1.00;;;6.20;78.60;;;;;;5050831;28;20021;-72
2022/03/18 02:09:51;;;;;;;4.82;1.30;;;6.20;78.40;;;;;;5051281;28;20116;-72
2022/03/18 02:12:17;;;;;;;4.57;1.23;;;6.20;78.20;;;;;;5050128;28;20103;-74
2022/03/18 02:14:46;;;;;;;4.13;1.20;;;6.20;78.10;;;;;;5045606;28;20029;-73
2022/03/18 02:17:13;;;;;;;5.03;1.75;;;6.10;77.70;;;;;;5053972;28;20078;-74
2022/03/18 02:19:40;;;;;;;5.43;1.60;;;6.00;77.70;;;;;;5054528;28;20025;-74
2022/03/18 02:22:18;;;;;;;6.05;1.67;;;5.90;77.90;;;;;;5054379;28;20021;-74
2022/03/18 02:24:46;;;;;;;3.03;1.45;;;5.80;77.80;;;;;;5055245;28;20119;-74
2022/03/18 02:27:12;;;;;;;4.90;1.90;;;5.80;78.40;;;;;;5054087;28;20549;-74
2022/03/18 02:29:38;;;;;;;7.55;2.03;;;5.70;78.30;;;;;;5054194;28;20489;-74
2022/03/18 02:32:05;;;;;;;4.50;2.08;;;5.60;78.80;;;;;;5053830;28;20021;-74
2022/03/18 02:34:31;;;;;;;7.72;2.60;;;5.60;78.90;;;;;;5052818;28;20134;-74
2022/03/18 02:36:58;;;;;;;3.17;2.08;;;5.60;79.30;;;;;;5054348;28;20496;-74
2022/03/18 02:39:23;;;;;;;5.85;2.10;;;5.50;79.60;;;;;;5053615;28;20036;-74
2022/03/18 02:41:49;;;;;;;7.00;2.38;;;5.50;79.60;;;;;;5053714;28;20021;-74
2022/03/18 02:44:15;;;;;;;6.78;2.10;;;5.50;79.40;;;;;;5053901;28;20029;-74
2022/03/18 02:46:41;;;;;;;7.65;2.42;;;5.40;79.60;;;;;;5053667;28;20024;-74
2022/03/18 02:49:07;;;;;;;5.82;1.92;;;5.40;80.00;;;;;;5053824;28;20367;-74
2022/03/18 02:51:36;;;;;;;5.90;2.35;;;5.40;80.30;;;;;;5054290;28;20032;-74
2022/03/18 02:54:01;;;;;;;5.68;2.30;;;5.40;80.20;;;;;;5052413;28;20048;-73
2022/03/18 02:56:27;;;;;;;5.95;2.65;;;5.30;80.80;;;;;;5053565;28;20021;-73
2022/03/18 02:58:53;;;;;;;4.15;2.28;;;5.30;81.00;;;;;;5053623;28;20111;-74
2022/03/18 03:01:19;;;;;;;5.13;2.70;;;5.30;80.90;;;;;;5037299;28;20052;-73
2022/03/18 03:03:44;;;;;;;7.55;2.20;;;5.20;80.60;;;;;;5054177;28;20035;-73
2022/03/18 03:08:54;;;;;;;4.95;1.90;;;5.20;80.10;;;;;;5053011;28;20063;-74
2022/03/18 03:11:22;;;;;;;4.63;2.00;;;5.10;80.90;;;;;;5053105;28;20044;-74
2022/03/18 03:13:49;;;;;;;7.22;2.00;;;5.20;80.70;;;;;;5052079;28;20471;-74
2022/03/18 03:16:14;;;;;;;4.18;1.67;;;5.10;80.60;;;;;;5051621;28;20139;-74
2022/03/18 03:18:40;;;;;;;6.93;2.13;;;5.10;81.00;;;;;;5052072;28;20472;-74
2022/03/18 03:21:06;;;;;;;6.05;2.20;;;5.20;81.00;;;;;;5052411;28;20508;-74
2022/03/18 03:23:32;;;;;;;6.35;2.08;;;5.10;80.50;;;;;;5051862;28;20077;-74
2022/03/18 03:25:57;;;;;;;4.72;1.73;;;5.10;80.60;;;;;;5052240;28;20056;-74
2022/03/18 03:28:23;;;;;;;3.60;2.13;;;5.10;80.70;;;;;;5052049;28;20075;-74
2022/03/18 03:30:49;;;;;;;6.95;2.50;;;5.10;80.70;;;;;;5053291;28;20021;-73
2022/03/18 03:33:18;;;;;;;5.50;1.98;;;5.10;81.00;;;;;;5052238;28;20068;-74
2022/03/18 03:35:44;;;;;;;4.60;1.73;;;5.10;81.10;;;;;;5052677;28;20021;-73
2022/03/18 03:38:13;;;;;;;3.65;1.67;;;5.10;80.70;;;;;;5052517;28;20070;-74
2022/03/18 03:40:40;;;;;;;6.18;1.90;;;5.10;81.10;;;;;;5052824;28;20036;-75
2022/03/18 03:43:06;;;;;;;5.60;2.13;;;5.10;80.90;;;;;;5051933;28;20029;-75
2022/03/18 03:45:32;;;;;;;6.30;2.10;;;5.00;81.30;;;;;;5050583;28;20048;-76
2022/03/18 03:47:57;;;;;;;4.93;2.40;;;5.00;81.40;;;;;;5052055;28;20071;-75
2022/03/18 03:50:23;;;;;;;4.55;1.90;;;5.00;81.80;;;;;;5052044;28;20078;-75
2022/03/18 03:52:48;;;;;;;6.18;2.17;;;5.00;81.40;;;;;;5052083;28;20543;-74
2022/03/18 03:55:14;;;;;;;6.20;2.10;;;5.00;81.90;;;;;;5052147;28;20028;-75
2022/03/18 03:57:40;;;;;;;5.90;2.00;;;5.00;82.00;;;;;;5052117;28;20024;-74
2022/03/18 04:00:10;;;;;;;6.18;1.75;;;5.00;81.90;;;;;;5051771;28;20060;-75
2022/03/18 04:02:37;;;;;;;4.63;1.90;;;5.00;82.00;;;;;;5051367;28;20025;-75
2022/03/18 04:05:07;;;;;;;5.22;1.92;;;5.10;81.90;;;;;;5045831;28;20030;-75
2022/03/18 04:07:37;;;;;;;6.10;2.15;;;5.10;82.00;;;;;;5051828;28;20029;-75
2022/03/18 04:10:05;;;;;;;7.25;2.28;;;5.10;81.70;;;;;;5051923;28;20091;-75
2022/03/18 04:12:32;;;;;;;7.85;2.00;;;5.00;81.90;;;;;;5051408;28;20040;-74
2022/03/18 04:15:10;;;;;;;5.97;1.73;;;5.00;82.20;;;;;;5051561;28;20548;-74
2022/03/18 04:17:37;;;;;;;5.65;1.70;;;5.00;82.10;;;;;;5051385;28;20111;-75
2022/03/18 04:20:05;;;;;;;6.63;2.13;;;5.00;82.40;;;;;;5051979;28;20032;-76
2022/03/18 04:22:31;;;;;;;9.40;1.88;;;5.00;82.60;;;;;;5050564;28;20033;-75
2022/03/18 04:24:57;;;;;;;5.03;2.10;;;5.00;83.20;;;;;;5051685;28;20028;-74
2022/03/18 04:27:23;;;;;;;7.32;1.70;;;5.00;83.40;;;;;;5049029;28;20024;-74
2022/03/18 04:29:48;;;;;;;7.80;1.92;;;5.00;83.80;;;;;;5051122;28;20032;-74
2022/03/18 04:32:14;;;;;;;5.47;1.83;;;5.00;83.30;;;;;;5051584;28;20409;-75
2022/03/18 04:34:39;;;;;;;3.13;1.73;;;5.10;83.70;;;;;;5051408;28;20481;-73
2022/03/18 04:37:05;;;;;;;4.50;1.90;;;5.10;83.70;;;;;;5051429;28;20021;-74
2022/03/18 04:39:31;;;;;;;4.40;1.77;;;5.10;83.30;;;;;;5050782;28;20390;-74
2022/03/18 04:41:56;;;;;;;3.35;1.70;;;5.10;83.30;;;;;;5051209;28;20025;-73
2022/03/18 04:44:22;;;;;;;6.53;1.90;;;5.10;84.00;;;;;;5049806;28;20683;-73
2022/03/18 04:46:48;;;;;;;5.28;1.70;;;5.10;83.80;;;;;;5049821;28;20121;-75
2022/03/18 04:49:14;;;;;;;3.85;1.40;;;5.10;83.50;;;;;;5051290;28;20037;-75
2022/03/18 04:51:40;;;;;;;5.93;2.00;;;5.10;83.80;;;;;;5051561;28;20118;-75
2022/03/18 04:54:06;;;;;;;4.53;1.77;;;5.00;84.00;;;;;;5051333;28;20116;-75
2022/03/18 04:59:18;;;;;;;5.32;1.92;;;5.00;84.40;;;;;;5051308;28;20036;-75
2022/03/18 05:01:44;;;;;;;5.72;1.65;;;5.00;83.60;;;;;;5051220;28;20429;-76
2022/03/18 05:04:09;;;;;;;7.75;2.03;;;5.00;83.50;;;;;;5051142;28;20552;-76
2022/03/18 05:06:35;;;;;;;4.60;2.00;;;5.00;83.40;;;;;;5051300;28;20530;-76
2022/03/18 05:09:01;;;;;;;7.40;2.10;;;5.00;83.40;;;;;;5049898;28;20029;-75
2022/03/18 05:11:26;;;;;;;4.20;1.63;;;5.00;83.70;;;;;;5049933;28;20110;-75
2022/03/18 05:13:52;;;;;;;6.07;2.15;;;5.00;83.70;;;;;;5051161;28;20122;-75
2022/03/18 05:16:18;;;;;;;4.93;1.73;;;5.00;84.20;;;;;;5049539;28;20078;-74
2022/03/18 05:18:43;;;;;;;4.80;1.83;;;5.00;83.40;;;;;;5051457;28;20033;-75
2022/03/18 05:21:09;;;;;;;4.20;1.55;;;5.00;84.30;;;;;;5050981;28;20040;-74
2022/03/18 05:23:34;;;;;;;4.40;2.30;;;5.00;83.90;;;;;;5050842;28;20482;-74
2022/03/18 05:26:00;;;;;;;4.63;1.50;;;5.00;84.10;;;;;;5050219;28;20032;-74
2022/03/18 05:28:26;;;;;;;3.80;1.63;;;5.00;84.40;;;;;;5050717;28;20401;-74
2022/03/18 05:30:52;;;;;;;3.83;1.52;;;5.00;84.40;;;;;;5049636;28;20025;-75
2022/03/18 05:33:19;;;;;;;4.40;1.88;;;5.00;83.80;;;;;;5050638;28;20115;-74
2022/03/18 05:35:45;;;;;;;4.38;1.40;;;5.10;84.10;;;;;;5050929;28;20025;-74
2022/03/18 05:38:11;;;;;;;4.00;1.40;;;5.10;84.50;;;;;;5050742;28;20033;-74
2022/03/18 05:40:36;;;;;;;4.30;1.60;;;5.10;84.50;;;;;;5050204;28;20025;-74
2022/03/18 05:43:02;;;;;;;4.47;1.70;;;5.10;84.60;;;;;;5050458;28;20033;-77
2022/03/18 05:45:27;;;;;;;4.22;1.55;;;5.00;84.40;;;;;;5051354;28;20029;-76
2022/03/18 05:47:53;;;;;;;4.47;1.40;;;5.00;84.40;;;;;;5050555;28;20037;-76
2022/03/18 05:50:19;;;;;;;3.83;1.90;;;5.10;84.50;;;;;;5051777;28;20029;-77
2022/03/18 05:52:45;;;;;;;5.22;1.52;;;5.00;84.40;;;;;;5054398;28;20037;-74
2022/03/18 05:55:11;;;;;;;5.65;1.40;;;5.00;84.50;;;;;;5054392;28;20136;-75
2022/03/18 05:57:38;;;;;;;4.25;1.42;;;5.00;85.00;;;;;;5054605;28;20037;-74
2022/03/18 06:00:05;;;;;;;5.97;1.63;;;5.00;84.80;;;;;;5054108;28;20094;-75
2022/03/18 06:02:31;;;;;;;5.60;1.80;;;4.90;84.70;;;;;;5053733;28;20032;-75
2022/03/18 06:04:57;;;;;;;3.63;1.50;;;4.90;84.40;;;;;;5054225;28;20041;-74
2022/03/18 06:07:23;;;;;;;4.38;1.77;;;4.80;84.60;;;;;;5052648;28;20029;-73
2022/03/18 06:12:33;;;;;;;7.30;1.50;;;4.80;84.80;;;;;;5052060;28;20455;-74
2022/03/18 06:14:58;;;;;;;3.38;1.30;;;4.80;85.30;;;;;;5051930;28;20497;-74
2022/03/18 06:17:24;;;;;;;3.88;1.45;;;4.80;85.00;;;;;;5054224;28;20242;-74
2022/03/18 06:19:49;;;;;;;4.13;1.52;;;4.80;85.40;;;;;;5060035;28;20029;-75
2022/03/18 06:22:15;;;;;;;5.90;1.67;;;4.80;85.50;;;;;;5068369;28;20098;-76
2022/03/18 06:24:41;;;;;;;9.85;2.00;;;4.80;85.20;;;;;;5059911;28;20025;-75
2022/03/18 06:27:06;;;;;;;3.38;1.75;;;4.80;85.30;;;;;;5060870;28;20024;-74
2022/03/18 06:29:32;;;;;;;4.13;1.70;;;4.80;85.50;;;;;;5059700;28;20481;-74
2022/03/18 06:31:59;;;;;;;6.43;2.05;;;4.80;86.50;;;;;;5059846;28;20033;-74
2022/03/18 06:34:25;;;;;;;4.63;2.03;;;4.90;85.30;;;;;;5053823;28;20060;-75
2022/03/18 06:36:52;;;;;;;6.47;2.15;;;4.90;85.10;;;;;;5054012;28;20401;-75
2022/03/18 06:39:22;;;;;;;6.90;2.10;;;5.00;85.40;;;;;;5053545;28;20047;-75
2022/03/18 06:41:48;;;;;;;4.20;1.85;;;5.00;85.80;;;;;;5053083;28;20036;-75
2022/03/18 06:44:14;;;;;;;7.38;2.25;;;5.10;86.20;;;;;;5052985;28;20057;-75
2022/03/18 06:46:40;;;;;;;5.65;2.20;;;5.10;86.60;;;;;;5053207;28;20028;-75
2022/03/18 06:49:07;;;;;;;5.15;2.17;;;5.20;86.80;;;;;;5053235;28;20533;-75
2022/03/18 06:51:34;;;;;;;4.95;2.20;;;5.30;86.30;;;;;;5051391;28;20032;-74
2022/03/18 06:54:00;;;;;;;7.30;2.15;;;5.30;86.00;;;;;;5053416;28;20059;-73
2022/03/18 06:56:27;;;;;;;6.93;2.22;;;5.40;85.80;;;;;;5052570;28;20025;-73
2022/03/18 06:58:53;;;;;;;5.18;2.60;;;5.40;86.40;;;;;;5053268;28;20120;-75
2022/03/18 07:01:21;;;;;;;5.75;2.08;;;5.50;86.80;;;;;;5052244;28;20032;-75
2022/03/18 07:03:47;;;;;;;6.50;2.15;;;5.50;86.70;;;;;;5053787;28;20024;-74
2022/03/18 07:06:13;;;;;;;7.15;2.30;;;5.60;87.10;;;;;;5051200;28;20029;-75
2022/03/18 07:08:38;;;;;;;2.75;1.73;;;5.60;87.10;;;;;;5052790;28;20528;-75
2022/03/18 07:11:04;;;;;;;6.18;2.13;;;5.60;86.50;;;;;;5052551;28;20400;-74
2022/03/18 07:13:30;;;;;;;4.13;2.10;;;5.60;86.30;;;;;;5052656;28;20079;-74
2022/03/18 07:17:54;;;;;;;5.35;1.92;;;5.70;86.60;;;;;;5052913;28;20058;-75
2022/03/18 07:18:42;;;;;;;5.38;2.25;;;5.70;86.50;;;;;;5053335;28;20488;-75
2022/03/18 07:21:07;;;;;;;7.30;2.10;;;5.80;86.10;;;;;;5051309;28;20060;-75
2022/03/18 07:23:33;;;;;;;7.05;2.53;;;5.80;86.20;;;;;;5048705;28;20049;-75
2022/03/18 07:25:59;;;;;;;6.97;2.58;;;5.80;86.20;;;;;;5042367;28;20072;-74
2022/03/18 07:28:24;;;;;;;5.47;1.95;;;5.90;86.50;;;;;;5049277;28;20528;-74
2022/03/18 07:30:50;;;;;;;5.60;2.28;;;5.90;86.40;;;;;;5043067;28;20037;-75
2022/03/18 07:33:15;;;;;;;5.22;2.60;;;6.00;86.30;;;;;;5048672;28;20531;-75
2022/03/18 07:35:42;;;;;;;8.70;2.83;;;6.10;86.00;;;;;;5052433;28;20029;-75
2022/03/18 07:38:09;;;;;;;6.03;2.55;;;6.20;86.40;;;;;;5052525;28;20029;-74
2022/03/18 07:40:41;;;;;;;5.35;2.60;;;6.20;86.30;;;;;;5052764;28;20033;-74
2022/03/18 07:43:08;;;;;;;5.88;3.00;;;6.30;86.10;;;;;;5052658;28;20025;-74
2022/03/18 07:45:36;;;;;;;7.20;3.17;;;6.40;86.30;;;;;;5052931;28;20032;-74
2022/03/18 07:48:05;;;;;;;7.32;3.10;;;6.50;86.20;;;;;;5051213;28;20114;-75
2022/03/18 07:50:32;;;;;;;10.25;3.15;;;6.60;86.30;;;;;;5052172;28;20028;-75
2022/03/18 07:53:03;;;;;;;7.25;3.42;;;6.70;86.10;;;;;;5052471;28;20033;-70
2022/03/18 07:55:30;;;;;;;9.90;3.40;;;6.80;87.00;;;;;;5050811;28;20480;-68
2022/03/18 07:57:57;;;;;;;7.43;3.42;;;7.00;86.30;;;;;;5052228;28;20227;-68
2022/03/18 08:00:23;;;;;;;9.32;4.18;;;7.10;85.60;;;;;;5052657;28;20024;-68
2022/03/18 08:02:50;;;;;;;8.32;3.58;;;7.20;85.60;;;;;;5052255;28;20108;-69
2022/03/18 08:05:17;;;;;;;9.43;3.03;;;7.30;85.40;;;;;;5051929;28;20031;-69
2022/03/18 08:07:44;;;;;;;9.88;3.75;;;7.30;85.10;;;;;;5052262;28;20025;-69
2022/03/18 08:10:10;;;;;;;5.40;2.80;;;7.40;84.60;;;;;;5052184;28;20127;-69
2022/03/18 08:12:37;;;;;;;8.52;4.25;;;7.40;84.60;;;;;;5052465;28;20021;-69
2022/03/18 08:15:06;;;;;;;5.97;3.30;;;7.50;84.10;;;;;;5052023;28;20512;-68
2022/03/18 08:17:32;;;;;;;6.50;3.05;;;7.50;83.80;;;;;;5052043;28;20086;-70
2022/03/18 08:19:57;;;;;;;8.52;3.60;;;7.50;83.60;;;;;;5046242;28;20504;-69
2022/03/18 08:22:25;;;;;;;6.70;3.15;;;7.60;83.80;;;;;;5044991;28;20083;-70
2022/03/18 08:24:52;;;;;;;7.63;3.65;;;7.70;83.10;;;;;;5048325;28;20025;-70
2022/03/18 08:27:18;;;;;;;7.72;3.45;;;7.70;83.00;;;;;;5036806;28;20033;-69
2022/03/18 08:29:45;;;;;;;4.65;3.10;;;7.70;82.60;;;;;;5039705;28;20056;-69
2022/03/18 08:32:15;;;;;;;5.30;2.75;;;7.80;82.60;;;;;;5042460;28;20104;-70
2022/03/18 08:34:41;;;;;;;7.00;3.25;;;7.80;82.40;;;;;;5043594;28;20118;-72
2022/03/18 08:37:08;;;;;;;7.38;3.42;;;7.90;82.10;;;;;;5041657;28;20022;-71
2022/03/18 08:39:35;;;;;;;10.15;3.55;;;7.90;81.90;;;;;;5043553;28;20025;-71
2022/03/18 08:42:00;;;;;;;6.13;2.90;;;7.90;81.60;;;;;;5039778;28;20057;-71
2022/03/18 08:44:26;;;;;;;6.47;3.55;;;8.00;82.10;;;;;;5044119;28;20442;-72
2022/03/18 08:46:52;;;;;;;6.75;3.65;;;8.10;81.40;;;;;;5038663;28;20573;-74
2022/03/18 08:49:18;;;;;;;5.65;3.60;;;8.10;80.30;;;;;;5039626;28;20402;-73
2022/03/18 08:51:43;;;;;;;8.07;3.40;;;8.20;80.80;;;;;;5035079;28;20044;-74
2022/03/18 08:54:09;;;;;;;5.35;3.08;;;8.30;80.70;;;;;;5044853;28;20033;-73
2022/03/18 08:56:35;;;;;;;6.03;3.42;;;8.30;79.90;;;;;;5040215;28;20037;-74
2022/03/18 08:59:06;;;;;;;7.38;3.10;;;8.40;79.90;;;;;;5040903;28;20044;-73
2022/03/18 09:01:37;;;;;;;10.07;3.55;;;8.40;78.90;;;;;;5044282;28;20032;-74
2022/03/18 09:04:03;;;;;;;6.43;3.03;;;8.50;79.30;;;;;;5048756;28;20110;-74
2022/03/18 09:06:29;;;;;;;9.07;3.20;;;8.50;79.10;;;;;;5050226;28;20024;-73
2022/03/18 09:08:57;;;;;;;5.90;3.10;;;8.50;77.80;;;;;;5049661;28;20045;-73
2022/03/18 09:11:23;;;;;;;8.02;3.05;;;8.60;78.30;;;;;;5051260;28;20124;-74
2022/03/18 09:13:48;;;;;;;6.63;3.05;;;8.60;77.10;;;;;;5051260;28;20524;-73
2022/03/18 09:16:14;;;;;;;6.97;3.08;;;8.70;76.70;;;;;;5051096;28;20108;-74
2022/03/18 09:18:40;;;;;;;5.88;2.67;;;8.70;77.60;;;;;;5051894;28;20025;-73
2022/03/18 09:21:07;;;;;;;4.60;2.40;;;8.80;76.30;;;;;;5051130;28;20052;-73
2022/03/18 09:23:32;;;;;;;7.60;3.00;;;8.90;76.30;;;;;;5051346;28;20493;-73
2022/03/18 09:25:58;;;;;;;6.70;2.80;;;9.00;76.30;;;;;;5052437;28;20116;-74
2022/03/18 09:28:24;;;;;;;6.50;2.83;;;9.10;75.80;;;;;;5055377;28;20485;-74
2022/03/18 09:30:50;;;;;;;5.45;2.42;;;9.10;74.50;;;;;;5055515;28;20433;-73
2022/03/18 09:33:15;;;;;;;5.47;2.38;;;9.20;74.10;;;;;;5055205;28;20480;-73
2022/03/18 09:35:43;;;;;;;4.15;2.17;;;9.20;74.40;;;;;;5055277;28;20489;-73
2022/03/18 09:38:14;;;;;;;4.95;2.50;;;9.30;73.60;;;;;;5055209;28;20413;-73
2022/03/18 09:40:41;;;;;;;6.28;2.58;;;9.30;73.80;;;;;;5055014;28;20025;-73
2022/03/18 09:43:09;;;;;;;6.82;2.40;;;9.40;74.00;;;;;;5055143;28;20025;-73
2022/03/18 09:45:39;;;;;;;4.82;1.98;;;9.50;71.80;;;;;;5055336;28;20025;-73
2022/03/18 09:48:10;;;;;;;3.60;1.58;;;9.50;71.90;;;;;;5054948;28;20556;-73
2022/03/18 09:50:37;;;;;;;3.25;2.00;;;9.60;71.60;;;;;;5054795;28;20021;-72
2022/03/18 09:53:04;;;;;;;5.00;1.65;;;9.70;72.40;;;;;;5049105;28;20124;-73
2022/03/18 09:55:30;;;;;;;2.70;1.40;;;9.70;71.00;;;;;;5054625;28;20025;-73
2022/03/18 09:57:56;;;;;;;4.00;1.40;;;9.80;69.30;;;;;;5054877;28;20052;-73
2022/03/18 10:00:22;;;;;;;3.15;1.52;;;9.90;69.20;;;;;;5054698;28;20033;-73
2022/03/18 10:03:09;;;;;;;2.42;1.10;;;9.90;68.60;;;;;;5053337;28;20025;-72
2022/03/18 10:05:35;;;;;;;2.95;1.27;;;10.00;68.30;;;;;;5054511;28;20017;-73
2022/03/18 10:08:01;;;;;;;2.10;1.30;;;10.10;67.50;;;;;;5053098;28;20086;-73
2022/03/18 10:10:27;;;;;;;2.20;1.08;;;10.10;66.40;;;;;;5054226;28;20029;-73
2022/03/18 10:12:56;;;;;;;4.13;1.58;;;10.10;67.20;;;;;;5053306;28;20036;-73
2022/03/18 10:15:28;;;;;;;4.43;1.30;;;10.20;68.50;;;;;;5054250;28;20074;-72
2022/03/18 10:17:58;;;;;;;2.00;1.13;;;10.30;66.00;;;;;;5048534;28;20041;-73
2022/03/18 10:20:26;;;;;;;3.85;1.40;;;10.30;66.90;;;;;;5054218;28;20032;-73
2022/03/18 10:22:53;;;;;;;1.88;1.00;;;10.40;64.80;;;;;;5054793;28;20091;-74
2022/03/18 10:25:40;;;;;;;2.53;1.77;;;10.40;63.60;;;;;;5054323;28;20029;-73
2022/03/18 10:28:07;;;;;;;4.38;1.40;;;10.50;65.40;;;;;;5052579;28;20104;-73
2022/03/18 10:30:34;;;;;;;2.30;1.30;;;10.50;65.20;;;;;;5053113;28;20025;-73
2022/03/18 10:33:00;;;;;;;2.47;1.23;;;10.60;64.40;;;;;;5054215;28;20033;-74
2022/03/18 10:38:35;;;;;;;3.30;1.42;;;10.60;63.90;;;;;;5053455;28;20543;-74
2022/03/18 10:41:23;;;;;;;2.05;0.80;;;10.70;65.40;;;;;;5052354;28;20040;-74
2022/03/18 10:43:55;;;;;;;3.40;1.40;;;10.70;62.90;;;;;;5052484;28;20029;-73
2022/03/18 10:46:22;;;;;;;1.83;1.10;;;10.80;62.40;;;;;;5036856;28;20056;-73
2022/03/18 10:49:07;;;;;;;2.83;1.33;;;10.90;60.60;;;;;;5054444;28;20033;-73
2022/03/18 10:51:36;;;;;;;3.05;1.33;;;10.90;63.00;;;;;;5052202;28;20051;-73
2022/03/18 10:54:02;;;;;;;2.50;1.38;;;11.00;61.40;;;;;;5053495;28;20063;-73
2022/03/18 10:56:28;;;;;;;1.92;1.15;;;11.00;59.80;;;;;;5053742;28;20025;-73
2022/03/18 10:58:53;;;;;;;3.38;1.20;;;11.10;60.30;;;;;;5053377;28;20517;-72
2022/03/18 11:01:19;;;;;;;4.57;1.40;;;11.00;59.60;;;;;;5053738;28;20029;-73
2022/03/18 11:03:46;;;;;;;2.65;1.30;;;11.10;59.50;;;;;;5054042;28;20067;-73
2022/03/18 11:06:13;;;;;;;4.57;1.60;;;11.10;60.00;;;;;;5051834;28;20420;-72
2022/03/18 11:08:44;;;;;;;4.60;1.50;;;11.20;61.10;;;;;;5052712;28;20051;-73
2022/03/18 11:11:17;;;;;;;3.28;1.45;;;11.20;60.60;;;;;;5051703;28;20115;-72
2022/03/18 11:14:00;;;;;;;2.63;1.27;;;11.30;59.70;;;;;;5051038;28;20501;-73
2022/03/18 11:16:33;;;;;;;2.25;1.23;;;11.30;60.30;;;;;;5038371;28;20449;-75
2022/03/18 11:19:01;;;;;;;1.83;1.30;;;11.40;58.90;;;;;;5043372;28;20095;-75
